sensor_id;sensor_type;location;lat;lon;timestamp;temperature;humidity
1083;DHT22;530;51.448;7.238;2023-06-22T00:02:16;22.20;99.90
1083;DHT22;530;51.448;7.238;2023-06-22T00:04:42;22.20;99.90
1083;DHT22;530;51.448;7.238;2023-06-22T00:07:07;22.20;99.90
1083;DHT22;530;51.448;7.238;2023-06-22T00:09:34;22.20;99.90
1083;DHT22;530;51.448;7.238;2023-06-22T00:11:59;22.20;99.90
1083;DHT22;530;51.448;7.238;2023-06-22T00:14:25;22.20;99.90
1083;DHT22;530;51.448;7.238;2023-06-22T00:16:51;22.20;99.90
1083;DHT22;530;51.448;7.238;2023-06-22T00:19:23;22.20;99.90
1083;DHT22;530;51.448;7.238;2023-06-22T00:21:50;22.10;99.90
1083;DHT22;530;51.448;7.238;2023-06-22T00:24:21;22.10;99.90
1083;DHT22;530;51.448;7.238;2023-06-22T00:26:50;22.00;99.90
1083;DHT22;530;51.448;7.238;2023-06-22T00:29:16;21.90;99.90
1083;DHT22;530;51.448;7.238;2023-06-22T00:31:42;21.90;99.90
1083;DHT22;530;51.448;7.238;2023-06-22T00:34:08;21.90;99.90
1083;DHT22;530;51.448;7.238;2023-06-22T00:36:35;22.00;99.90
1083;DHT22;530;51.448;7.238;2023-06-22T00:39:01;21.90;99.90
1083;DHT22;530;51.448;7.238;2023-06-22T00:41:26;21.90;99.90
1083;DHT22;530;51.448;7.238;2023-06-22T00:43:55;21.80;99.90
1083;DHT22;530;51.448;7.238;2023-06-22T00:46:21;21.80;99.90
1083;DHT22;530;51.448;7.238;2023-06-22T00:48:49;21.70;99.90
1083;DHT22;530;51.448;7.238;2023-06-22T00:51:15;21.70;99.90
1083;DHT22;530;51.448;7.238;2023-06-22T00:53:41;21.60;99.90
1083;DHT22;530;51.448;7.238;2023-06-22T00:56:08;21.60;99.90
1083;DHT22;530;51.448;7.238;2023-06-22T00:58:36;21.60;99.90
1083;DHT22;530;51.448;7.238;2023-06-22T01:01:02;21.60;99.90
1083;DHT22;530;51.448;7.238;2023-06-22T01:03:28;21.50;99.90
1083;DHT22;530;51.448;7.238;2023-06-22T01:05:58;21.50;99.90
1083;DHT22;530;51.448;7.238;2023-06-22T01:14:00;21.50;99.90
1083;DHT22;530;51.448;7.238;2023-06-22T01:16:33;21.40;99.90
1083;DHT22;530;51.448;7.238;2023-06-22T01:22:02;21.40;99.90
1083;DHT22;530;51.448;7.238;2023-06-22T01:27:36;21.40;99.90
1083;DHT22;530;51.448;7.238;2023-06-22T01:30:11;21.40;99.90
1083;DHT22;530;51.448;7.238;2023-06-22T01:32:39;21.40;99.90
1083;DHT22;530;51.448;7.238;2023-06-22T01:35:07;21.40;99.90
1083;DHT22;530;51.448;7.238;2023-06-22T01:37:35;21.40;99.90
1083;DHT22;530;51.448;7.238;2023-06-22T01:40:01;21.40;99.90
1083;DHT22;530;51.448;7.238;2023-06-22T01:42:29;21.40;99.90
1083;DHT22;530;51.448;7.238;2023-06-22T01:44:55;21.40;99.90
1083;DHT22;530;51.448;7.238;2023-06-22T01:47:22;21.40;99.90
1083;DHT22;530;51.448;7.238;2023-06-22T01:49:49;21.40;99.90
1083;DHT22;530;51.448;7.238;2023-06-22T01:52:17;21.40;99.90
1083;DHT22;530;51.448;7.238;2023-06-22T01:54:43;21.40;99.90
1083;DHT22;530;51.448;7.238;2023-06-22T01:57:09;21.30;99.90
1083;DHT22;530;51.448;7.238;2023-06-22T01:59:41;21.30;99.90
1083;DHT22;530;51.448;7.238;2023-06-22T02:02:10;21.20;99.90
1083;DHT22;530;51.448;7.238;2023-06-22T02:07:19;21.20;99.90
1083;DHT22;530;51.448;7.238;2023-06-22T02:09:49;21.20;99.90
1083;DHT22;530;51.448;7.238;2023-06-22T02:12:18;21.20;99.90
1083;DHT22;530;51.448;7.238;2023-06-22T02:14:46;21.10;99.90
1083;DHT22;530;51.448;7.238;2023-06-22T02:17:12;21.10;99.90
1083;DHT22;530;51.448;7.238;2023-06-22T02:19:41;21.10;99.90
1083;DHT22;530;51.448;7.238;2023-06-22T02:22:07;21.10;99.90
1083;DHT22;530;51.448;7.238;2023-06-22T02:24:33;21.00;99.90
1083;DHT22;530;51.448;7.238;2023-06-22T02:26:59;21.00;99.90
1083;DHT22;530;51.448;7.238;2023-06-22T02:29:25;21.00;99.90
1083;DHT22;530;51.448;7.238;2023-06-22T02:31:52;20.90;99.90
1083;DHT22;530;51.448;7.238;2023-06-22T02:34:18;20.90;99.90
1083;DHT22;530;51.448;7.238;2023-06-22T02:36:48;20.90;99.90
1083;DHT22;530;51.448;7.238;2023-06-22T02:39:21;20.80;99.90
1083;DHT22;530;51.448;7.238;2023-06-22T02:41:51;20.70;99.90
1083;DHT22;530;51.448;7.238;2023-06-22T02:44:17;20.70;99.90
1083;DHT22;530;51.448;7.238;2023-06-22T02:46:43;20.70;99.90
1083;DHT22;530;51.448;7.238;2023-06-22T02:49:10;20.70;99.90
1083;DHT22;530;51.448;7.238;2023-06-22T02:51:39;20.60;99.90
1083;DHT22;530;51.448;7.238;2023-06-22T02:54:06;20.70;99.90
1083;DHT22;530;51.448;7.238;2023-06-22T02:56:31;20.70;99.90
1083;DHT22;530;51.448;7.238;2023-06-22T02:58:57;20.60;99.90
1083;DHT22;530;51.448;7.238;2023-06-22T03:01:29;20.70;99.90
1083;DHT22;530;51.448;7.238;2023-06-22T03:04:05;20.70;99.90
1083;DHT22;530;51.448;7.238;2023-06-22T03:06:31;20.70;99.90
1083;DHT22;530;51.448;7.238;2023-06-22T03:09:00;20.70;99.90
1083;DHT22;530;51.448;7.238;2023-06-22T03:11:26;20.70;99.90
1083;DHT22;530;51.448;7.238;2023-06-22T03:13:52;20.70;99.90
1083;DHT22;530;51.448;7.238;2023-06-22T03:16:18;20.60;99.90
1083;DHT22;530;51.448;7.238;2023-06-22T03:18:44;20.70;99.90
1083;DHT22;530;51.448;7.238;2023-06-22T03:21:10;20.60;99.90
1083;DHT22;530;51.448;7.238;2023-06-22T03:23:36;20.60;99.90
1083;DHT22;530;51.448;7.238;2023-06-22T03:26:02;20.60;99.90
1083;DHT22;530;51.448;7.238;2023-06-22T03:28:27;20.60;99.90
1083;DHT22;530;51.448;7.238;2023-06-22T03:30:54;20.60;99.90
1083;DHT22;530;51.448;7.238;2023-06-22T03:33:19;20.60;99.90
1083;DHT22;530;51.448;7.238;2023-06-22T03:35:45;20.60;99.90
1083;DHT22;530;51.448;7.238;2023-06-22T03:38:11;20.60;99.90
1083;DHT22;530;51.448;7.238;2023-06-22T03:40:36;20.70;99.90
1083;DHT22;530;51.448;7.238;2023-06-22T03:43:02;20.70;99.90
1083;DHT22;530;51.448;7.238;2023-06-22T03:45:27;20.70;99.90
1083;DHT22;530;51.448;7.238;2023-06-22T03:47:53;20.70;99.90
1083;DHT22;530;51.448;7.238;2023-06-22T03:50:19;20.70;99.90
1083;DHT22;530;51.448;7.238;2023-06-22T03:52:46;20.60;99.90
1083;DHT22;530;51.448;7.238;2023-06-22T03:55:12;20.70;99.90
1083;DHT22;530;51.448;7.238;2023-06-22T03:57:38;20.70;99.90
1083;DHT22;530;51.448;7.238;2023-06-22T04:00:04;20.70;99.90
1083;DHT22;530;51.448;7.238;2023-06-22T04:02:31;20.70;99.90
1083;DHT22;530;51.448;7.238;2023-06-22T04:04:57;20.70;99.90
1083;DHT22;530;51.448;7.238;2023-06-22T04:07:22;20.70;99.90
1083;DHT22;530;51.448;7.238;2023-06-22T04:09:48;20.70;99.90
1083;DHT22;530;51.448;7.238;2023-06-22T04:12:14;20.60;99.90
1083;DHT22;530;51.448;7.238;2023-06-22T04:14:39;20.70;99.90
1083;DHT22;530;51.448;7.238;2023-06-22T04:17:05;20.60;99.90
1083;DHT22;530;51.448;7.238;2023-06-22T04:19:31;20.60;99.90
1083;DHT22;530;51.448;7.238;2023-06-22T04:21:57;20.60;99.90
1083;DHT22;530;51.448;7.238;2023-06-22T04:24:22;20.60;99.90
1083;DHT22;530;51.448;7.238;2023-06-22T04:26:48;20.60;99.90
1083;DHT22;530;51.448;7.238;2023-06-22T04:29:14;20.70;99.90
1083;DHT22;530;51.448;7.238;2023-06-22T04:31:39;20.70;99.90
1083;DHT22;530;51.448;7.238;2023-06-22T04:34:07;20.70;99.90
1083;DHT22;530;51.448;7.238;2023-06-22T04:36:37;20.70;99.90
1083;DHT22;530;51.448;7.238;2023-06-22T04:39:07;20.80;99.90
1083;DHT22;530;51.448;7.238;2023-06-22T04:41:37;20.80;99.90
1083;DHT22;530;51.448;7.238;2023-06-22T04:46:39;20.80;99.90
1083;DHT22;530;51.448;7.238;2023-06-22T04:52:27;20.70;99.90
1083;DHT22;530;51.448;7.238;2023-06-22T04:54:53;20.70;99.90
1083;DHT22;530;51.448;7.238;2023-06-22T04:57:23;20.70;99.90
1083;DHT22;530;51.448;7.238;2023-06-22T04:59:56;20.70;99.90
1083;DHT22;530;51.448;7.238;2023-06-22T05:02:21;20.60;99.90
1083;DHT22;530;51.448;7.238;2023-06-22T05:04:48;20.60;99.90
1083;DHT22;530;51.448;7.238;2023-06-22T05:07:16;20.60;99.90
1083;DHT22;530;51.448;7.238;2023-06-22T05:09:42;20.60;99.90
1083;DHT22;530;51.448;7.238;2023-06-22T05:12:08;20.60;99.90
1083;DHT22;530;51.448;7.238;2023-06-22T05:14:33;20.60;99.90
1083;DHT22;530;51.448;7.238;2023-06-22T05:16:59;20.60;99.90
1083;DHT22;530;51.448;7.238;2023-06-22T05:19:29;20.60;99.90
1083;DHT22;530;51.448;7.238;2023-06-22T05:21:58;20.70;99.90
1083;DHT22;530;51.448;7.238;2023-06-22T05:24:24;20.70;99.90
1083;DHT22;530;51.448;7.238;2023-06-22T05:26:50;20.70;99.90
1083;DHT22;530;51.448;7.238;2023-06-22T05:29:15;20.70;99.90
1083;DHT22;530;51.448;7.238;2023-06-22T05:31:41;20.70;99.90
1083;DHT22;530;51.448;7.238;2023-06-22T05:34:07;20.80;99.90
1083;DHT22;530;51.448;7.238;2023-06-22T05:36:32;20.70;99.90
1083;DHT22;530;51.448;7.238;2023-06-22T05:38:58;20.70;99.90
1083;DHT22;530;51.448;7.238;2023-06-22T05:41:24;20.80;99.90
1083;DHT22;530;51.448;7.238;2023-06-22T05:43:49;20.80;99.90
1083;DHT22;530;51.448;7.238;2023-06-22T05:46:15;20.80;99.90
1083;DHT22;530;51.448;7.238;2023-06-22T05:48:41;20.90;99.90
1083;DHT22;530;51.448;7.238;2023-06-22T05:51:07;20.90;99.90
1083;DHT22;530;51.448;7.238;2023-06-22T05:53:32;20.90;99.90
1083;DHT22;530;51.448;7.238;2023-06-22T05:55:58;20.90;99.90
1083;DHT22;530;51.448;7.238;2023-06-22T05:58:24;21.00;99.90
1083;DHT22;530;51.448;7.238;2023-06-22T06:00:49;21.00;99.90
1083;DHT22;530;51.448;7.238;2023-06-22T06:03:15;21.10;99.90
1083;DHT22;530;51.448;7.238;2023-06-22T06:05:42;21.20;99.90
1083;DHT22;530;51.448;7.238;2023-06-22T06:08:08;21.20;99.90
1083;DHT22;530;51.448;7.238;2023-06-22T06:10:36;21.20;99.90
1083;DHT22;530;51.448;7.238;2023-06-22T06:13:02;21.20;99.90
1083;DHT22;530;51.448;7.238;2023-06-22T06:15:30;21.20;99.90
1083;DHT22;530;51.448;7.238;2023-06-22T06:17:55;21.20;99.90
1083;DHT22;530;51.448;7.238;2023-06-22T06:20:23;21.20;99.90
1083;DHT22;530;51.448;7.238;2023-06-22T06:22:49;21.30;99.90
1083;DHT22;530;51.448;7.238;2023-06-22T06:25:15;21.30;99.90
1083;DHT22;530;51.448;7.238;2023-06-22T06:27:45;21.30;99.90
1083;DHT22;530;51.448;7.238;2023-06-22T06:30:12;21.40;99.90
1083;DHT22;530;51.448;7.238;2023-06-22T06:32:38;21.40;99.90
1083;DHT22;530;51.448;7.238;2023-06-22T06:35:09;21.50;99.90
1083;DHT22;530;51.448;7.238;2023-06-22T06:37:39;21.50;99.90
1083;DHT22;530;51.448;7.238;2023-06-22T06:40:09;21.50;99.90
1083;DHT22;530;51.448;7.238;2023-06-22T06:42:42;21.50;99.90
1083;DHT22;530;51.448;7.238;2023-06-22T06:45:15;21.50;99.90
1083;DHT22;530;51.448;7.238;2023-06-22T06:47:41;21.60;99.90
1083;DHT22;530;51.448;7.238;2023-06-22T06:50:08;21.60;99.90
1083;DHT22;530;51.448;7.238;2023-06-22T06:52:34;21.70;99.90
1083;DHT22;530;51.448;7.238;2023-06-22T06:55:00;21.60;99.90
1083;DHT22;530;51.448;7.238;2023-06-22T06:57:25;21.60;99.90
1083;DHT22;530;51.448;7.238;2023-06-22T06:59:57;21.70;99.90
1083;DHT22;530;51.448;7.238;2023-06-22T07:02:23;21.70;99.90
1083;DHT22;530;51.448;7.238;2023-06-22T07:04:49;21.70;99.90
1083;DHT22;530;51.448;7.238;2023-06-22T07:07:16;21.70;99.90
1083;DHT22;530;51.448;7.238;2023-06-22T07:09:42;21.70;99.90
1083;DHT22;530;51.448;7.238;2023-06-22T07:12:08;21.70;99.90
1083;DHT22;530;51.448;7.238;2023-06-22T07:14:33;21.70;99.90
1083;DHT22;530;51.448;7.238;2023-06-22T07:16:59;21.70;99.90
1083;DHT22;530;51.448;7.238;2023-06-22T07:19:26;21.70;99.90
1083;DHT22;530;51.448;7.238;2023-06-22T07:21:52;21.60;99.90
1083;DHT22;530;51.448;7.238;2023-06-22T07:24:19;21.60;99.90
1083;DHT22;530;51.448;7.238;2023-06-22T07:26:49;21.60;99.90
1083;DHT22;530;51.448;7.238;2023-06-22T07:29:18;21.50;99.90
1083;DHT22;530;51.448;7.238;2023-06-22T07:31:47;21.50;99.90
1083;DHT22;530;51.448;7.238;2023-06-22T07:34:13;21.60;99.90
1083;DHT22;530;51.448;7.238;2023-06-22T07:36:39;21.70;99.90
1083;DHT22;530;51.448;7.238;2023-06-22T07:39:05;21.60;99.90
1083;DHT22;530;51.448;7.238;2023-06-22T07:41:31;21.60;99.90
1083;DHT22;530;51.448;7.238;2023-06-22T07:43:56;21.60;99.90
1083;DHT22;530;51.448;7.238;2023-06-22T07:46:23;21.50;99.90
1083;DHT22;530;51.448;7.238;2023-06-22T07:48:49;21.50;99.90
1083;DHT22;530;51.448;7.238;2023-06-22T07:51:14;21.50;99.90
1083;DHT22;530;51.448;7.238;2023-06-22T07:53:44;21.50;99.90
1083;DHT22;530;51.448;7.238;2023-06-22T07:56:13;21.60;99.90
1083;DHT22;530;51.448;7.238;2023-06-22T07:58:39;21.60;99.90
1083;DHT22;530;51.448;7.238;2023-06-22T08:01:05;21.60;99.90
1083;DHT22;530;51.448;7.238;2023-06-22T08:03:31;21.60;99.90
1083;DHT22;530;51.448;7.238;2023-06-22T08:05:57;21.60;99.90
1083;DHT22;530;51.448;7.238;2023-06-22T08:08:23;21.60;99.90
1083;DHT22;530;51.448;7.238;2023-06-22T08:10:49;21.50;99.90
1083;DHT22;530;51.448;7.238;2023-06-22T08:13:15;21.50;99.90
1083;DHT22;530;51.448;7.238;2023-06-22T08:15:41;21.40;99.90
1083;DHT22;530;51.448;7.238;2023-06-22T08:18:06;21.40;99.90
1083;DHT22;530;51.448;7.238;2023-06-22T08:20:32;21.40;99.90
1083;DHT22;530;51.448;7.238;2023-06-22T08:22:58;21.40;99.90
1083;DHT22;530;51.448;7.238;2023-06-22T08:25:30;21.40;99.90
1083;DHT22;530;51.448;7.238;2023-06-22T08:27:56;21.40;99.90
1083;DHT22;530;51.448;7.238;2023-06-22T08:30:22;21.40;99.90
1083;DHT22;530;51.448;7.238;2023-06-22T08:32:47;21.50;99.90
1083;DHT22;530;51.448;7.238;2023-06-22T08:35:13;21.50;99.90
1083;DHT22;530;51.448;7.238;2023-06-22T08:37:39;21.60;99.90
1083;DHT22;530;51.448;7.238;2023-06-22T08:40:07;21.60;99.90
1083;DHT22;530;51.448;7.238;2023-06-22T08:42:34;21.70;99.90
1083;DHT22;530;51.448;7.238;2023-06-22T08:45:00;21.70;99.90
1083;DHT22;530;51.448;7.238;2023-06-22T08:47:27;21.80;99.90
1083;DHT22;530;51.448;7.238;2023-06-22T08:49:53;21.90;99.90
1083;DHT22;530;51.448;7.238;2023-06-22T08:52:19;21.90;99.90
1083;DHT22;530;51.448;7.238;2023-06-22T08:54:49;21.80;99.90
1083;DHT22;530;51.448;7.238;2023-06-22T08:57:15;21.90;99.90
1083;DHT22;530;51.448;7.238;2023-06-22T08:59:42;21.90;99.90
1083;DHT22;530;51.448;7.238;2023-06-22T09:02:07;22.00;99.90
1083;DHT22;530;51.448;7.238;2023-06-22T09:04:33;22.10;99.90
1083;DHT22;530;51.448;7.238;2023-06-22T09:07:03;22.10;99.90
1083;DHT22;530;51.448;7.238;2023-06-22T09:09:29;22.20;99.90
1083;DHT22;530;51.448;7.238;2023-06-22T09:11:55;22.20;99.90
1083;DHT22;530;51.448;7.238;2023-06-22T09:14:20;22.30;99.90
1083;DHT22;530;51.448;7.238;2023-06-22T09:16:46;22.40;99.90
1083;DHT22;530;51.448;7.238;2023-06-22T09:19:12;22.50;99.90
1083;DHT22;530;51.448;7.238;2023-06-22T09:21:38;22.50;99.90
1083;DHT22;530;51.448;7.238;2023-06-22T09:24:04;22.70;99.90
1083;DHT22;530;51.448;7.238;2023-06-22T09:26:29;23.10;99.90
1083;DHT22;530;51.448;7.238;2023-06-22T09:28:55;23.30;99.90
1083;DHT22;530;51.448;7.238;2023-06-22T09:31:21;23.50;99.90
1083;DHT22;530;51.448;7.238;2023-06-22T09:33:53;23.80;99.90
1083;DHT22;530;51.448;7.238;2023-06-22T09:36:22;24.00;99.90
1083;DHT22;530;51.448;7.238;2023-06-22T09:38:49;24.10;99.90
1083;DHT22;530;51.448;7.238;2023-06-22T09:41:20;24.30;99.90
1083;DHT22;530;51.448;7.238;2023-06-22T09:43:46;24.50;99.90
1083;DHT22;530;51.448;7.238;2023-06-22T09:46:15;24.70;99.90
1083;DHT22;530;51.448;7.238;2023-06-22T09:48:40;24.90;99.90
1083;DHT22;530;51.448;7.238;2023-06-22T09:51:06;25.10;99.90
1083;DHT22;530;51.448;7.238;2023-06-22T09:53:32;25.20;99.90
1083;DHT22;530;51.448;7.238;2023-06-22T09:55:57;25.20;99.90
1083;DHT22;530;51.448;7.238;2023-06-22T09:58:23;25.20;99.90
1083;DHT22;530;51.448;7.238;2023-06-22T10:00:49;25.20;99.90
1083;DHT22;530;51.448;7.238;2023-06-22T10:03:14;25.20;99.90
1083;DHT22;530;51.448;7.238;2023-06-22T10:05:40;25.30;99.90
1083;DHT22;530;51.448;7.238;2023-06-22T10:08:06;25.30;99.90
1083;DHT22;530;51.448;7.238;2023-06-22T10:10:33;25.30;99.90
1083;DHT22;530;51.448;7.238;2023-06-22T10:13:10;25.30;99.90
1083;DHT22;530;51.448;7.238;2023-06-22T10:15:36;25.30;99.90
1083;DHT22;530;51.448;7.238;2023-06-22T10:18:02;25.30;99.90
1083;DHT22;530;51.448;7.238;2023-06-22T10:20:28;25.30;99.90
1083;DHT22;530;51.448;7.238;2023-06-22T10:22:54;25.30;99.90
1083;DHT22;530;51.448;7.238;2023-06-22T10:25:21;25.40;99.90
1083;DHT22;530;51.448;7.238;2023-06-22T10:27:46;25.40;99.90
1083;DHT22;530;51.448;7.238;2023-06-22T10:30:13;25.50;99.90
1083;DHT22;530;51.448;7.238;2023-06-22T10:32:39;25.50;99.90
1083;DHT22;530;51.448;7.238;2023-06-22T10:35:05;25.60;99.90
1083;DHT22;530;51.448;7.238;2023-06-22T10:37:31;25.60;99.90
1083;DHT22;530;51.448;7.238;2023-06-22T10:39:57;25.60;99.90
1083;DHT22;530;51.448;7.238;2023-06-22T10:42:22;25.60;99.90
1083;DHT22;530;51.448;7.238;2023-06-22T10:44:48;25.60;99.90
1083;DHT22;530;51.448;7.238;2023-06-22T10:47:14;25.70;99.90
1083;DHT22;530;51.448;7.238;2023-06-22T10:49:40;25.80;99.90
1083;DHT22;530;51.448;7.238;2023-06-22T10:52:07;25.90;99.90
1083;DHT22;530;51.448;7.238;2023-06-22T10:54:34;25.90;99.90
1083;DHT22;530;51.448;7.238;2023-06-22T10:57:01;25.90;99.90
1083;DHT22;530;51.448;7.238;2023-06-22T10:59:27;25.80;99.90
1083;DHT22;530;51.448;7.238;2023-06-22T11:01:55;25.80;99.90
1083;DHT22;530;51.448;7.238;2023-06-22T11:04:21;25.70;99.90
1083;DHT22;530;51.448;7.238;2023-06-22T11:06:48;25.60;99.90
1083;DHT22;530;51.448;7.238;2023-06-22T11:09:14;25.50;99.90
1083;DHT22;530;51.448;7.238;2023-06-22T11:11:44;25.40;99.90
1083;DHT22;530;51.448;7.238;2023-06-22T11:14:10;25.30;99.90
1083;DHT22;530;51.448;7.238;2023-06-22T11:16:36;25.30;99.90
1083;DHT22;530;51.448;7.238;2023-06-22T11:19:02;25.10;99.90
1083;DHT22;530;51.448;7.238;2023-06-22T11:21:28;25.00;99.90
1083;DHT22;530;51.448;7.238;2023-06-22T11:23:54;24.80;99.90
1083;DHT22;530;51.448;7.238;2023-06-22T11:26:20;24.70;99.90
1083;DHT22;530;51.448;7.238;2023-06-22T11:28:46;24.50;99.90
1083;DHT22;530;51.448;7.238;2023-06-22T11:31:12;24.30;99.90
1083;DHT22;530;51.448;7.238;2023-06-22T11:33:38;24.20;99.90
1083;DHT22;530;51.448;7.238;2023-06-22T11:36:04;24.00;99.90
1083;DHT22;530;51.448;7.238;2023-06-22T11:38:30;23.90;99.90
1083;DHT22;530;51.448;7.238;2023-06-22T11:41:00;23.80;99.90
1083;DHT22;530;51.448;7.238;2023-06-22T11:43:25;23.80;99.90
1083;DHT22;530;51.448;7.238;2023-06-22T11:45:51;23.70;99.90
1083;DHT22;530;51.448;7.238;2023-06-22T11:48:17;23.70;99.90
1083;DHT22;530;51.448;7.238;2023-06-22T11:50:42;23.70;99.90
1083;DHT22;530;51.448;7.238;2023-06-22T11:53:08;23.70;99.90
1083;DHT22;530;51.448;7.238;2023-06-22T11:55:34;23.50;99.90
1083;DHT22;530;51.448;7.238;2023-06-22T11:58:00;23.40;99.90
1083;DHT22;530;51.448;7.238;2023-06-22T12:00:29;23.30;99.90
1083;DHT22;530;51.448;7.238;2023-06-22T12:02:55;23.30;99.90
1083;DHT22;530;51.448;7.238;2023-06-22T12:05:21;23.30;99.90
1083;DHT22;530;51.448;7.238;2023-06-22T12:07:48;23.30;99.90
1083;DHT22;530;51.448;7.238;2023-06-22T12:10:14;23.20;99.90
1083;DHT22;530;51.448;7.238;2023-06-22T12:12:40;23.20;99.90
1083;DHT22;530;51.448;7.238;2023-06-22T12:15:06;23.20;99.90
1083;DHT22;530;51.448;7.238;2023-06-22T12:17:33;23.10;99.90
1083;DHT22;530;51.448;7.238;2023-06-22T12:19:59;23.10;99.90
1083;DHT22;530;51.448;7.238;2023-06-22T12:22:25;23.10;99.90
1083;DHT22;530;51.448;7.238;2023-06-22T12:24:51;23.20;99.90
1083;DHT22;530;51.448;7.238;2023-06-22T12:27:17;23.20;99.90
1083;DHT22;530;51.448;7.238;2023-06-22T12:29:46;23.10;99.90
1083;DHT22;530;51.448;7.238;2023-06-22T12:32:13;23.10;99.90
1083;DHT22;530;51.448;7.238;2023-06-22T12:34:39;23.00;99.90
1083;DHT22;530;51.448;7.238;2023-06-22T12:37:05;22.90;99.90
1083;DHT22;530;51.448;7.238;2023-06-22T12:39:32;22.90;99.90
1083;DHT22;530;51.448;7.238;2023-06-22T12:41:58;22.80;99.90
1083;DHT22;530;51.448;7.238;2023-06-22T12:44:24;22.80;99.90
1083;DHT22;530;51.448;7.238;2023-06-22T12:46:50;22.80;99.90
1083;DHT22;530;51.448;7.238;2023-06-22T12:49:15;22.80;99.90
1083;DHT22;530;51.448;7.238;2023-06-22T12:51:42;22.80;99.90
1083;DHT22;530;51.448;7.238;2023-06-22T12:54:08;22.80;99.90
1083;DHT22;530;51.448;7.238;2023-06-22T12:56:35;22.80;99.90
1083;DHT22;530;51.448;7.238;2023-06-22T12:59:00;22.80;99.90
1083;DHT22;530;51.448;7.238;2023-06-22T13:01:27;22.80;99.90
1083;DHT22;530;51.448;7.238;2023-06-22T13:03:53;22.80;99.90
1083;DHT22;530;51.448;7.238;2023-06-22T13:06:19;22.80;99.90
1083;DHT22;530;51.448;7.238;2023-06-22T13:08:45;22.70;99.90
1083;DHT22;530;51.448;7.238;2023-06-22T13:11:11;22.60;99.90
1083;DHT22;530;51.448;7.238;2023-06-22T13:13:36;22.60;99.90
1083;DHT22;530;51.448;7.238;2023-06-22T13:16:02;22.70;99.90
1083;DHT22;530;51.448;7.238;2023-06-22T13:18:28;22.60;99.90
1083;DHT22;530;51.448;7.238;2023-06-22T13:20:53;22.70;99.90
1083;DHT22;530;51.448;7.238;2023-06-22T13:23:20;22.70;99.90
1083;DHT22;530;51.448;7.238;2023-06-22T13:25:47;22.80;99.90
1083;DHT22;530;51.448;7.238;2023-06-22T13:28:13;22.90;99.90
1083;DHT22;530;51.448;7.238;2023-06-22T13:30:42;22.90;99.90
1083;DHT22;530;51.448;7.238;2023-06-22T13:33:11;22.90;99.90
1083;DHT22;530;51.448;7.238;2023-06-22T13:35:36;22.90;99.90
1083;DHT22;530;51.448;7.238;2023-06-22T13:38:03;22.80;99.90
1083;DHT22;530;51.448;7.238;2023-06-22T13:40:29;22.90;99.90
1083;DHT22;530;51.448;7.238;2023-06-22T13:42:55;22.90;99.90
1083;DHT22;530;51.448;7.238;2023-06-22T13:45:21;22.80;99.90
1083;DHT22;530;51.448;7.238;2023-06-22T13:47:47;22.90;99.90
1083;DHT22;530;51.448;7.238;2023-06-22T13:50:13;22.90;99.90
1083;DHT22;530;51.448;7.238;2023-06-22T13:52:39;22.90;99.90
1083;DHT22;530;51.448;7.238;2023-06-22T13:55:05;22.90;99.90
1083;DHT22;530;51.448;7.238;2023-06-22T13:57:32;22.90;99.90
1083;DHT22;530;51.448;7.238;2023-06-22T13:59:59;22.80;99.90
1083;DHT22;530;51.448;7.238;2023-06-22T14:02:28;22.90;99.90
1083;DHT22;530;51.448;7.238;2023-06-22T14:04:54;22.90;99.90
1083;DHT22;530;51.448;7.238;2023-06-22T14:07:19;22.90;99.90
1083;DHT22;530;51.448;7.238;2023-06-22T14:09:46;22.90;99.90
1083;DHT22;530;51.448;7.238;2023-06-22T14:12:12;22.90;99.90
1083;DHT22;530;51.448;7.238;2023-06-22T14:14:38;22.80;99.90
1083;DHT22;530;51.448;7.238;2023-06-22T14:17:04;22.80;99.90
1083;DHT22;530;51.448;7.238;2023-06-22T14:19:30;22.80;99.90
1083;DHT22;530;51.448;7.238;2023-06-22T14:21:56;22.80;99.90
1083;DHT22;530;51.448;7.238;2023-06-22T14:24:23;22.80;99.90
1083;DHT22;530;51.448;7.238;2023-06-22T14:26:48;22.70;99.90
1083;DHT22;530;51.448;7.238;2023-06-22T14:29:14;22.70;99.90
1083;DHT22;530;51.448;7.238;2023-06-22T14:31:40;22.70;99.90
1083;DHT22;530;51.448;7.238;2023-06-22T14:34:06;22.70;99.90
1083;DHT22;530;51.448;7.238;2023-06-22T14:36:32;22.70;99.90
1083;DHT22;530;51.448;7.238;2023-06-22T14:38:58;22.70;99.90
1083;DHT22;530;51.448;7.238;2023-06-22T14:41:23;22.80;99.90
1083;DHT22;530;51.448;7.238;2023-06-22T14:43:50;22.70;99.90
1083;DHT22;530;51.448;7.238;2023-06-22T14:46:17;22.70;99.90
1083;DHT22;530;51.448;7.238;2023-06-22T14:48:43;22.70;99.90
1083;DHT22;530;51.448;7.238;2023-06-22T14:51:09;22.70;99.90
1083;DHT22;530;51.448;7.238;2023-06-22T14:53:36;22.70;99.90
1083;DHT22;530;51.448;7.238;2023-06-22T14:56:02;22.60;99.90
1083;DHT22;530;51.448;7.238;2023-06-22T14:58:29;22.70;99.90
1083;DHT22;530;51.448;7.238;2023-06-22T15:01:02;22.70;99.90
1083;DHT22;530;51.448;7.238;2023-06-22T15:03:28;22.70;99.90
1083;DHT22;530;51.448;7.238;2023-06-22T15:06:00;22.60;99.90
1083;DHT22;530;51.448;7.238;2023-06-22T15:08:26;22.60;99.90
1083;DHT22;530;51.448;7.238;2023-06-22T15:10:52;22.60;99.90
1083;DHT22;530;51.448;7.238;2023-06-22T15:13:18;22.60;99.90
1083;DHT22;530;51.448;7.238;2023-06-22T15:15:47;22.60;99.90
1083;DHT22;530;51.448;7.238;2023-06-22T15:18:14;22.50;99.90
1083;DHT22;530;51.448;7.238;2023-06-22T15:20:40;22.60;99.90
1083;DHT22;530;51.448;7.238;2023-06-22T15:23:07;22.50;99.90
1083;DHT22;530;51.448;7.238;2023-06-22T15:25:34;22.40;99.90
1083;DHT22;530;51.448;7.238;2023-06-22T15:27:59;22.40;99.90
1083;DHT22;530;51.448;7.238;2023-06-22T15:30:25;22.40;99.90
1083;DHT22;530;51.448;7.238;2023-06-22T15:32:51;22.40;99.90
1083;DHT22;530;51.448;7.238;2023-06-22T15:35:16;22.40;99.90
1083;DHT22;530;51.448;7.238;2023-06-22T15:37:44;22.30;99.90
1083;DHT22;530;51.448;7.238;2023-06-22T15:40:11;22.30;99.90
1083;DHT22;530;51.448;7.238;2023-06-22T15:42:37;22.20;99.90
1083;DHT22;530;51.448;7.238;2023-06-22T15:45:03;22.10;99.90
1083;DHT22;530;51.448;7.238;2023-06-22T15:47:29;22.10;99.90
1083;DHT22;530;51.448;7.238;2023-06-22T15:49:55;22.10;99.90
1083;DHT22;530;51.448;7.238;2023-06-22T15:52:20;22.00;99.90
1083;DHT22;530;51.448;7.238;2023-06-22T15:54:46;22.00;99.90
1083;DHT22;530;51.448;7.238;2023-06-22T15:57:12;22.00;99.90
1083;DHT22;530;51.448;7.238;2023-06-22T15:59:42;22.00;99.90
1083;DHT22;530;51.448;7.238;2023-06-22T16:02:09;22.00;99.90
1083;DHT22;530;51.448;7.238;2023-06-22T16:04:35;21.90;99.90
1083;DHT22;530;51.448;7.238;2023-06-22T16:07:01;22.00;99.90
1083;DHT22;530;51.448;7.238;2023-06-22T16:09:27;22.00;99.90
1083;DHT22;530;51.448;7.238;2023-06-22T16:11:56;22.10;99.90
1083;DHT22;530;51.448;7.238;2023-06-22T16:14:22;22.00;99.90
1083;DHT22;530;51.448;7.238;2023-06-22T16:16:48;21.90;99.90
1083;DHT22;530;51.448;7.238;2023-06-22T16:19:14;22.00;99.90
1083;DHT22;530;51.448;7.238;2023-06-22T16:21:41;21.90;99.90
1083;DHT22;530;51.448;7.238;2023-06-22T16:24:06;21.90;99.90
1083;DHT22;530;51.448;7.238;2023-06-22T16:26:42;21.90;99.90
1083;DHT22;530;51.448;7.238;2023-06-22T16:29:08;21.80;99.90
1083;DHT22;530;51.448;7.238;2023-06-22T16:31:34;21.80;99.90
1083;DHT22;530;51.448;7.238;2023-06-22T16:34:02;21.60;99.90